sensor_id;sensor_type;location;lat;lon;timestamp;temperature;humidity
20891;DHT22;10605;52.968;8.844;2023-11-22T00:00:10;3.80;99.90
20891;DHT22;10605;52.968;8.844;2023-11-22T00:02:36;3.80;99.90
20891;DHT22;10605;52.968;8.844;2023-11-22T00:05:03;3.80;99.90
20891;DHT22;10605;52.968;8.844;2023-11-22T00:07:28;3.90;99.90
20891;DHT22;10605;52.968;8.844;2023-11-22T00:09:55;3.90;99.90
20891;DHT22;10605;52.968;8.844;2023-11-22T00:12:20;3.90;99.90
20891;DHT22;10605;52.968;8.844;2023-11-22T00:14:46;3.90;99.90
20891;DHT22;10605;52.968;8.844;2023-11-22T00:17:12;3.90;99.90
20891;DHT22;10605;52.968;8.844;2023-11-22T00:19:38;3.80;99.90
20891;DHT22;10605;52.968;8.844;2023-11-22T00:22:04;3.80;99.90
20891;DHT22;10605;52.968;8.844;2023-11-22T00:24:37;3.80;99.90
20891;DHT22;10605;52.968;8.844;2023-11-22T00:27:03;3.80;99.90
20891;DHT22;10605;52.968;8.844;2023-11-22T00:29:28;3.70;99.90
20891;DHT22;10605;52.968;8.844;2023-11-22T00:31:54;3.70;99.90
20891;DHT22;10605;52.968;8.844;2023-11-22T00:34:20;3.70;99.90
20891;DHT22;10605;52.968;8.844;2023-11-22T00:36:45;3.70;99.90
20891;DHT22;10605;52.968;8.844;2023-11-22T00:39:11;3.60;99.90
20891;DHT22;10605;52.968;8.844;2023-11-22T00:41:39;3.50;99.90
20891;DHT22;10605;52.968;8.844;2023-11-22T00:44:04;3.50;99.90
20891;DHT22;10605;52.968;8.844;2023-11-22T00:46:32;3.30;99.90
20891;DHT22;10605;52.968;8.844;2023-11-22T00:48:57;3.20;99.90
20891;DHT22;10605;52.968;8.844;2023-11-22T00:51:23;3.10;99.90
20891;DHT22;10605;52.968;8.844;2023-11-22T00:53:49;3.00;99.90
20891;DHT22;10605;52.968;8.844;2023-11-22T00:56:15;2.90;99.90
20891;DHT22;10605;52.968;8.844;2023-11-22T00:58:41;2.90;99.90
20891;DHT22;10605;52.968;8.844;2023-11-22T01:01:06;2.80;99.90
20891;DHT22;10605;52.968;8.844;2023-11-22T01:03:33;2.70;99.90
20891;DHT22;10605;52.968;8.844;2023-11-22T01:05:58;2.60;99.90
20891;DHT22;10605;52.968;8.844;2023-11-22T01:08:24;2.50;99.90
20891;DHT22;10605;52.968;8.844;2023-11-22T01:10:50;2.50;99.90
20891;DHT22;10605;52.968;8.844;2023-11-22T01:13:17;2.50;99.90
20891;DHT22;10605;52.968;8.844;2023-11-22T01:15:43;2.50;99.90
20891;DHT22;10605;52.968;8.844;2023-11-22T01:18:10;2.50;99.90
20891;DHT22;10605;52.968;8.844;2023-11-22T01:20:36;2.50;99.90
20891;DHT22;10605;52.968;8.844;2023-11-22T01:23:01;2.50;99.90
20891;DHT22;10605;52.968;8.844;2023-11-22T01:25:27;2.40;99.90
20891;DHT22;10605;52.968;8.844;2023-11-22T01:27:53;2.40;99.90
20891;DHT22;10605;52.968;8.844;2023-11-22T01:30:19;2.30;99.90
20891;DHT22;10605;52.968;8.844;2023-11-22T01:32:45;2.20;99.90
20891;DHT22;10605;52.968;8.844;2023-11-22T01:35:10;2.10;99.90
20891;DHT22;10605;52.968;8.844;2023-11-22T01:37:36;2.00;99.90
20891;DHT22;10605;52.968;8.844;2023-11-22T01:40:03;2.00;99.90
20891;DHT22;10605;52.968;8.844;2023-11-22T01:42:29;2.10;99.90
20891;DHT22;10605;52.968;8.844;2023-11-22T01:44:55;2.10;99.90
20891;DHT22;10605;52.968;8.844;2023-11-22T01:47:21;2.10;99.90
20891;DHT22;10605;52.968;8.844;2023-11-22T01:49:47;2.10;99.90
20891;DHT22;10605;52.968;8.844;2023-11-22T01:52:13;2.10;99.90
20891;DHT22;10605;52.968;8.844;2023-11-22T01:54:39;2.10;99.90
20891;DHT22;10605;52.968;8.844;2023-11-22T01:57:05;2.10;99.90
20891;DHT22;10605;52.968;8.844;2023-11-22T01:59:34;2.00;99.90
20891;DHT22;10605;52.968;8.844;2023-11-22T02:02:00;2.00;99.90
20891;DHT22;10605;52.968;8.844;2023-11-22T02:04:26;1.90;99.90
20891;DHT22;10605;52.968;8.844;2023-11-22T02:06:52;1.90;99.90
20891;DHT22;10605;52.968;8.844;2023-11-22T02:09:17;1.80;99.90
20891;DHT22;10605;52.968;8.844;2023-11-22T02:11:44;1.80;99.90
20891;DHT22;10605;52.968;8.844;2023-11-22T02:14:13;1.80;99.90
20891;DHT22;10605;52.968;8.844;2023-11-22T02:16:39;1.90;99.90
20891;DHT22;10605;52.968;8.844;2023-11-22T02:19:06;1.80;99.90
20891;DHT22;10605;52.968;8.844;2023-11-22T02:21:33;1.80;99.90
20891;DHT22;10605;52.968;8.844;2023-11-22T02:23:59;1.60;99.90
20891;DHT22;10605;52.968;8.844;2023-11-22T02:26:24;1.50;99.90
20891;DHT22;10605;52.968;8.844;2023-11-22T02:28:50;1.60;99.90
20891;DHT22;10605;52.968;8.844;2023-11-22T02:31:16;1.60;99.90
20891;DHT22;10605;52.968;8.844;2023-11-22T02:33:42;1.60;99.90
20891;DHT22;10605;52.968;8.844;2023-11-22T02:36:09;1.60;99.90
20891;DHT22;10605;52.968;8.844;2023-11-22T02:38:37;1.60;99.90
20891;DHT22;10605;52.968;8.844;2023-11-22T02:41:03;1.50;99.90
20891;DHT22;10605;52.968;8.844;2023-11-22T02:43:30;1.40;99.90
20891;DHT22;10605;52.968;8.844;2023-11-22T02:45:55;1.30;99.90
20891;DHT22;10605;52.968;8.844;2023-11-22T02:48:21;1.30;99.90
20891;DHT22;10605;52.968;8.844;2023-11-22T02:50:48;1.30;99.90
20891;DHT22;10605;52.968;8.844;2023-11-22T02:53:14;1.30;99.90
20891;DHT22;10605;52.968;8.844;2023-11-22T02:55:40;1.30;99.90
20891;DHT22;10605;52.968;8.844;2023-11-22T02:58:06;1.50;99.90
20891;DHT22;10605;52.968;8.844;2023-11-22T03:00:31;1.50;99.90
20891;DHT22;10605;52.968;8.844;2023-11-22T03:03:00;1.40;99.90
20891;DHT22;10605;52.968;8.844;2023-11-22T03:05:25;1.30;99.90
20891;DHT22;10605;52.968;8.844;2023-11-22T03:07:51;1.30;99.90
20891;DHT22;10605;52.968;8.844;2023-11-22T03:10:17;1.30;99.90
20891;DHT22;10605;52.968;8.844;2023-11-22T03:12:46;1.30;99.90
20891;DHT22;10605;52.968;8.844;2023-11-22T03:15:11;1.30;99.90
20891;DHT22;10605;52.968;8.844;2023-11-22T03:17:37;1.20;99.90
20891;DHT22;10605;52.968;8.844;2023-11-22T03:20:07;1.20;99.90
20891;DHT22;10605;52.968;8.844;2023-11-22T03:22:36;1.20;99.90
20891;DHT22;10605;52.968;8.844;2023-11-22T03:25:03;1.20;99.90
20891;DHT22;10605;52.968;8.844;2023-11-22T03:27:29;1.10;99.90
20891;DHT22;10605;52.968;8.844;2023-11-22T03:29:55;1.10;99.90
20891;DHT22;10605;52.968;8.844;2023-11-22T03:32:21;1.10;99.90
20891;DHT22;10605;52.968;8.844;2023-11-22T03:34:47;1.00;99.90
20891;DHT22;10605;52.968;8.844;2023-11-22T03:37:12;1.00;99.90
20891;DHT22;10605;52.968;8.844;2023-11-22T03:39:38;1.00;99.90
20891;DHT22;10605;52.968;8.844;2023-11-22T03:42:04;1.00;99.90
20891;DHT22;10605;52.968;8.844;2023-11-22T03:44:30;0.90;99.90
20891;DHT22;10605;52.968;8.844;2023-11-22T03:46:56;0.90;99.90
20891;DHT22;10605;52.968;8.844;2023-11-22T03:49:21;0.80;99.90
20891;DHT22;10605;52.968;8.844;2023-11-22T03:51:47;0.90;99.90
20891;DHT22;10605;52.968;8.844;2023-11-22T03:54:13;0.90;99.90
20891;DHT22;10605;52.968;8.844;2023-11-22T03:56:39;1.00;99.90
20891;DHT22;10605;52.968;8.844;2023-11-22T03:59:05;1.00;99.90
20891;DHT22;10605;52.968;8.844;2023-11-22T04:01:31;0.90;99.90
20891;DHT22;10605;52.968;8.844;2023-11-22T04:03:56;0.90;99.90
20891;DHT22;10605;52.968;8.844;2023-11-22T04:06:22;0.80;99.90
20891;DHT22;10605;52.968;8.844;2023-11-22T04:08:48;0.70;99.90
20891;DHT22;10605;52.968;8.844;2023-11-22T04:11:14;0.70;99.90
20891;DHT22;10605;52.968;8.844;2023-11-22T04:13:40;0.70;99.90
20891;DHT22;10605;52.968;8.844;2023-11-22T04:16:09;0.70;99.90
20891;DHT22;10605;52.968;8.844;2023-11-22T04:18:40;0.70;99.90
20891;DHT22;10605;52.968;8.844;2023-11-22T04:21:06;0.60;99.90
20891;DHT22;10605;52.968;8.844;2023-11-22T04:23:32;0.60;99.90
20891;DHT22;10605;52.968;8.844;2023-11-22T04:26:01;0.50;99.90
20891;DHT22;10605;52.968;8.844;2023-11-22T04:28:30;0.50;99.90
20891;DHT22;10605;52.968;8.844;2023-11-22T04:30:56;0.50;99.90
20891;DHT22;10605;52.968;8.844;2023-11-22T04:33:22;0.40;99.90
20891;DHT22;10605;52.968;8.844;2023-11-22T04:35:49;0.40;99.90
20891;DHT22;10605;52.968;8.844;2023-11-22T04:38:15;0.30;99.90
20891;DHT22;10605;52.968;8.844;2023-11-22T04:40:40;0.30;99.90
20891;DHT22;10605;52.968;8.844;2023-11-22T04:43:08;0.30;99.90
20891;DHT22;10605;52.968;8.844;2023-11-22T04:45:34;0.30;99.90
20891;DHT22;10605;52.968;8.844;2023-11-22T04:48:00;0.20;99.90
20891;DHT22;10605;52.968;8.844;2023-11-22T04:50:25;0.20;99.90
20891;DHT22;10605;52.968;8.844;2023-11-22T04:52:51;0.20;99.90
20891;DHT22;10605;52.968;8.844;2023-11-22T04:55:17;0.20;99.90
20891;DHT22;10605;52.968;8.844;2023-11-22T04:57:46;0.30;99.90
20891;DHT22;10605;52.968;8.844;2023-11-22T05:00:12;0.30;99.90
20891;DHT22;10605;52.968;8.844;2023-11-22T05:02:38;0.30;99.90
20891;DHT22;10605;52.968;8.844;2023-11-22T05:05:06;0.40;99.90
20891;DHT22;10605;52.968;8.844;2023-11-22T05:07:31;0.40;99.90
20891;DHT22;10605;52.968;8.844;2023-11-22T05:09:57;0.40;99.90
20891;DHT22;10605;52.968;8.844;2023-11-22T05:12:22;0.40;99.90
20891;DHT22;10605;52.968;8.844;2023-11-22T05:14:49;0.40;99.90
20891;DHT22;10605;52.968;8.844;2023-11-22T05:17:14;0.40;99.90
20891;DHT22;10605;52.968;8.844;2023-11-22T05:19:40;0.40;99.90
20891;DHT22;10605;52.968;8.844;2023-11-22T05:22:06;0.40;99.90
20891;DHT22;10605;52.968;8.844;2023-11-22T05:24:33;0.40;99.90
20891;DHT22;10605;52.968;8.844;2023-11-22T05:27:00;0.30;99.90
20891;DHT22;10605;52.968;8.844;2023-11-22T05:29:26;0.30;99.90
20891;DHT22;10605;52.968;8.844;2023-11-22T05:31:51;0.30;99.90
20891;DHT22;10605;52.968;8.844;2023-11-22T05:34:18;0.20;99.90
20891;DHT22;10605;52.968;8.844;2023-11-22T05:36:43;0.10;99.90
20891;DHT22;10605;52.968;8.844;2023-11-22T05:39:09;0.10;99.90
20891;DHT22;10605;52.968;8.844;2023-11-22T05:41:35;0.10;99.90
20891;DHT22;10605;52.968;8.844;2023-11-22T05:44:01;0.10;99.90
20891;DHT22;10605;52.968;8.844;2023-11-22T05:46:28;0.20;99.90
20891;DHT22;10605;52.968;8.844;2023-11-22T05:48:54;0.20;99.90
20891;DHT22;10605;52.968;8.844;2023-11-22T05:51:20;0.20;99.90
20891;DHT22;10605;52.968;8.844;2023-11-22T05:53:46;0.10;99.90
20891;DHT22;10605;52.968;8.844;2023-11-22T05:56:12;0.10;99.90
20891;DHT22;10605;52.968;8.844;2023-11-22T05:58:38;0.20;99.90
20891;DHT22;10605;52.968;8.844;2023-11-22T06:01:07;0.10;99.90
20891;DHT22;10605;52.968;8.844;2023-11-22T06:03:35;0.00;99.90
20891;DHT22;10605;52.968;8.844;2023-11-22T06:06:01;-0.10;99.90
20891;DHT22;10605;52.968;8.844;2023-11-22T06:08:27;-0.20;99.90
20891;DHT22;10605;52.968;8.844;2023-11-22T06:10:53;-0.20;99.90
20891;DHT22;10605;52.968;8.844;2023-11-22T06:13:21;-0.30;99.90
20891;DHT22;10605;52.968;8.844;2023-11-22T06:15:47;-0.30;99.90
20891;DHT22;10605;52.968;8.844;2023-11-22T06:18:13;-0.30;99.90
20891;DHT22;10605;52.968;8.844;2023-11-22T06:20:40;-0.30;99.90
20891;DHT22;10605;52.968;8.844;2023-11-22T06:23:06;-0.30;99.90
20891;DHT22;10605;52.968;8.844;2023-11-22T06:25:32;-0.30;99.90
20891;DHT22;10605;52.968;8.844;2023-11-22T06:27:58;-0.40;99.90
20891;DHT22;10605;52.968;8.844;2023-11-22T06:30:23;-0.30;99.90
20891;DHT22;10605;52.968;8.844;2023-11-22T06:32:50;-0.30;99.90
20891;DHT22;10605;52.968;8.844;2023-11-22T06:35:16;-0.40;99.90
20891;DHT22;10605;52.968;8.844;2023-11-22T06:37:43;-0.30;99.90
20891;DHT22;10605;52.968;8.844;2023-11-22T06:40:10;-0.40;99.90
20891;DHT22;10605;52.968;8.844;2023-11-22T06:42:43;-0.40;99.90
20891;DHT22;10605;52.968;8.844;2023-11-22T06:45:09;-0.40;99.90
20891;DHT22;10605;52.968;8.844;2023-11-22T06:47:47;-0.40;99.90
20891;DHT22;10605;52.968;8.844;2023-11-22T06:50:13;-0.40;99.90
20891;DHT22;10605;52.968;8.844;2023-11-22T06:52:39;-0.40;99.90
20891;DHT22;10605;52.968;8.844;2023-11-22T06:55:07;-0.30;99.90
20891;DHT22;10605;52.968;8.844;2023-11-22T06:57:37;-0.10;99.90
20891;DHT22;10605;52.968;8.844;2023-11-22T07:00:04;0.10;99.90
20891;DHT22;10605;52.968;8.844;2023-11-22T07:02:36;0.20;99.90
20891;DHT22;10605;52.968;8.844;2023-11-22T07:05:03;0.30;99.90
20891;DHT22;10605;52.968;8.844;2023-11-22T07:07:29;0.30;99.90
20891;DHT22;10605;52.968;8.844;2023-11-22T07:09:55;0.30;99.90
20891;DHT22;10605;52.968;8.844;2023-11-22T07:12:24;0.30;99.90
20891;DHT22;10605;52.968;8.844;2023-11-22T07:14:50;0.30;99.90
20891;DHT22;10605;52.968;8.844;2023-11-22T07:17:16;0.30;99.90
20891;DHT22;10605;52.968;8.844;2023-11-22T07:19:43;0.40;99.90
20891;DHT22;10605;52.968;8.844;2023-11-22T07:22:15;0.50;99.90
20891;DHT22;10605;52.968;8.844;2023-11-22T07:24:44;0.60;99.90
20891;DHT22;10605;52.968;8.844;2023-11-22T07:27:11;0.70;99.90
20891;DHT22;10605;52.968;8.844;2023-11-22T07:29:39;0.70;99.90
20891;DHT22;10605;52.968;8.844;2023-11-22T07:32:06;0.70;99.90
20891;DHT22;10605;52.968;8.844;2023-11-22T07:34:32;0.80;99.90
20891;DHT22;10605;52.968;8.844;2023-11-22T07:36:59;0.90;99.90
20891;DHT22;10605;52.968;8.844;2023-11-22T07:39:24;1.10;99.90
20891;DHT22;10605;52.968;8.844;2023-11-22T07:41:53;1.00;99.90
20891;DHT22;10605;52.968;8.844;2023-11-22T07:44:23;1.10;99.90
20891;DHT22;10605;52.968;8.844;2023-11-22T07:46:52;1.10;99.90
20891;DHT22;10605;52.968;8.844;2023-11-22T07:49:19;1.10;99.90
20891;DHT22;10605;52.968;8.844;2023-11-22T07:51:46;1.20;99.90
20891;DHT22;10605;52.968;8.844;2023-11-22T07:54:12;1.40;99.90
20891;DHT22;10605;52.968;8.844;2023-11-22T07:56:41;1.50;99.90
20891;DHT22;10605;52.968;8.844;2023-11-22T07:59:09;1.50;99.90
20891;DHT22;10605;52.968;8.844;2023-11-22T08:01:36;1.50;99.90
20891;DHT22;10605;52.968;8.844;2023-11-22T08:04:03;1.50;99.90
20891;DHT22;10605;52.968;8.844;2023-11-22T08:06:33;1.60;99.90
20891;DHT22;10605;52.968;8.844;2023-11-22T08:08:59;1.70;99.90
20891;DHT22;10605;52.968;8.844;2023-11-22T08:11:28;1.70;99.90
20891;DHT22;10605;52.968;8.844;2023-11-22T08:13:54;1.80;99.90
20891;DHT22;10605;52.968;8.844;2023-11-22T08:16:25;1.90;99.90
20891;DHT22;10605;52.968;8.844;2023-11-22T08:18:51;1.90;99.90
20891;DHT22;10605;52.968;8.844;2023-11-22T08:21:17;2.00;99.90
20891;DHT22;10605;52.968;8.844;2023-11-22T08:23:43;2.10;99.90
20891;DHT22;10605;52.968;8.844;2023-11-22T08:26:10;2.20;99.90
20891;DHT22;10605;52.968;8.844;2023-11-22T08:28:37;2.20;99.90
20891;DHT22;10605;52.968;8.844;2023-11-22T08:31:03;2.30;99.90
20891;DHT22;10605;52.968;8.844;2023-11-22T08:33:35;2.20;99.90
20891;DHT22;10605;52.968;8.844;2023-11-22T08:36:01;2.30;99.90
20891;DHT22;10605;52.968;8.844;2023-11-22T08:38:30;2.50;99.90
20891;DHT22;10605;52.968;8.844;2023-11-22T08:40:56;2.40;99.90
20891;DHT22;10605;52.968;8.844;2023-11-22T08:43:22;2.50;99.90
20891;DHT22;10605;52.968;8.844;2023-11-22T08:45:51;2.50;99.90
20891;DHT22;10605;52.968;8.844;2023-11-22T08:48:17;2.50;99.90
20891;DHT22;10605;52.968;8.844;2023-11-22T08:50:43;2.60;99.90
20891;DHT22;10605;52.968;8.844;2023-11-22T08:53:10;2.60;99.90
20891;DHT22;10605;52.968;8.844;2023-11-22T08:55:36;2.70;99.90
20891;DHT22;10605;52.968;8.844;2023-11-22T08:58:01;2.70;99.90
20891;DHT22;10605;52.968;8.844;2023-11-22T09:00:27;2.90;99.90
20891;DHT22;10605;52.968;8.844;2023-11-22T09:02:54;2.90;99.90
20891;DHT22;10605;52.968;8.844;2023-11-22T09:05:23;3.10;99.90
20891;DHT22;10605;52.968;8.844;2023-11-22T09:07:48;3.10;99.90
20891;DHT22;10605;52.968;8.844;2023-11-22T09:10:16;3.20;99.90
20891;DHT22;10605;52.968;8.844;2023-11-22T09:12:44;3.30;99.90
20891;DHT22;10605;52.968;8.844;2023-11-22T09:15:11;3.40;99.90
20891;DHT22;10605;52.968;8.844;2023-11-22T09:17:38;3.40;99.90
20891;DHT22;10605;52.968;8.844;2023-11-22T09:22:42;3.40;99.90
20891;DHT22;10605;52.968;8.844;2023-11-22T09:25:31;3.40;99.90
20891;DHT22;10605;52.968;8.844;2023-11-22T09:27:58;3.40;99.90
20891;DHT22;10605;52.968;8.844;2023-11-22T09:30:26;3.50;99.90
20891;DHT22;10605;52.968;8.844;2023-11-22T09:35:29;3.70;99.90
20891;DHT22;10605;52.968;8.844;2023-11-22T09:37:57;3.80;99.90
20891;DHT22;10605;52.968;8.844;2023-11-22T09:40:23;3.80;99.90
20891;DHT22;10605;52.968;8.844;2023-11-22T09:42:48;3.90;99.90
20891;DHT22;10605;52.968;8.844;2023-11-22T09:45:20;4.00;99.90
20891;DHT22;10605;52.968;8.844;2023-11-22T09:47:46;4.20;99.90
20891;DHT22;10605;52.968;8.844;2023-11-22T09:50:40;4.30;99.90
20891;DHT22;10605;52.968;8.844;2023-11-22T09:53:11;4.40;99.90
20891;DHT22;10605;52.968;8.844;2023-11-22T09:55:41;4.50;99.90
20891;DHT22;10605;52.968;8.844;2023-11-22T09:58:11;4.70;99.90
20891;DHT22;10605;52.968;8.844;2023-11-22T10:00:39;4.80;99.90
20891;DHT22;10605;52.968;8.844;2023-11-22T10:03:06;4.90;99.90
20891;DHT22;10605;52.968;8.844;2023-11-22T10:05:33;5.00;99.90
20891;DHT22;10605;52.968;8.844;2023-11-22T10:07:59;4.90;99.90
20891;DHT22;10605;52.968;8.844;2023-11-22T10:10:26;5.10;99.90
20891;DHT22;10605;52.968;8.844;2023-11-22T10:12:54;5.20;99.90
20891;DHT22;10605;52.968;8.844;2023-11-22T10:15:21;5.20;99.90
20891;DHT22;10605;52.968;8.844;2023-11-22T10:17:58;5.30;99.90
20891;DHT22;10605;52.968;8.844;2023-11-22T10:23:00;5.40;99.90
20891;DHT22;10605;52.968;8.844;2023-11-22T10:25:26;5.50;99.90
20891;DHT22;10605;52.968;8.844;2023-11-22T10:27:52;5.50;99.90
20891;DHT22;10605;52.968;8.844;2023-11-22T10:30:18;5.60;99.90
20891;DHT22;10605;52.968;8.844;2023-11-22T10:32:45;5.60;99.90
20891;DHT22;10605;52.968;8.844;2023-11-22T10:35:11;5.70;99.90
20891;DHT22;10605;52.968;8.844;2023-11-22T10:37:41;5.90;99.90
20891;DHT22;10605;52.968;8.844;2023-11-22T10:40:08;6.10;99.90
20891;DHT22;10605;52.968;8.844;2023-11-22T10:42:36;6.10;99.90
20891;DHT22;10605;52.968;8.844;2023-11-22T10:45:04;6.10;99.90
20891;DHT22;10605;52.968;8.844;2023-11-22T10:47:38;6.10;99.90
20891;DHT22;10605;52.968;8.844;2023-11-22T10:50:08;6.10;99.90
20891;DHT22;10605;52.968;8.844;2023-11-22T10:52:35;6.20;99.90
20891;DHT22;10605;52.968;8.844;2023-11-22T10:55:04;6.30;99.90
20891;DHT22;10605;52.968;8.844;2023-11-22T10:57:33;6.50;99.90
20891;DHT22;10605;52.968;8.844;2023-11-22T11:00:04;6.50;99.90
20891;DHT22;10605;52.968;8.844;2023-11-22T11:02:40;6.40;99.90
20891;DHT22;10605;52.968;8.844;2023-11-22T11:05:21;6.30;99.90
20891;DHT22;10605;52.968;8.844;2023-11-22T11:08:07;6.30;99.90
20891;DHT22;10605;52.968;8.844;2023-11-22T11:10:40;6.40;99.90
20891;DHT22;10605;52.968;8.844;2023-11-22T11:13:09;6.30;99.90
20891;DHT22;10605;52.968;8.844;2023-11-22T11:15:35;6.20;99.90
20891;DHT22;10605;52.968;8.844;2023-11-22T11:18:02;6.30;99.90
20891;DHT22;10605;52.968;8.844;2023-11-22T11:20:33;6.20;99.90
20891;DHT22;10605;52.968;8.844;2023-11-22T11:23:02;6.30;99.90
20891;DHT22;10605;52.968;8.844;2023-11-22T11:25:32;6.20;99.90
20891;DHT22;10605;52.968;8.844;2023-11-22T11:27:59;6.30;99.90
20891;DHT22;10605;52.968;8.844;2023-11-22T11:30:52;6.30;99.90
20891;DHT22;10605;52.968;8.844;2023-11-22T11:33:32;6.40;99.90
20891;DHT22;10605;52.968;8.844;2023-11-22T11:35:58;6.40;99.90
20891;DHT22;10605;52.968;8.844;2023-11-22T11:38:34;6.50;99.90
20891;DHT22;10605;52.968;8.844;2023-11-22T11:41:11;6.50;99.90
20891;DHT22;10605;52.968;8.844;2023-11-22T11:43:47;6.30;99.90
20891;DHT22;10605;52.968;8.844;2023-11-22T11:46:14;6.50;99.90
20891;DHT22;10605;52.968;8.844;2023-11-22T11:48:51;6.60;99.90
20891;DHT22;10605;52.968;8.844;2023-11-22T11:51:22;6.50;99.90
20891;DHT22;10605;52.968;8.844;2023-11-22T11:53:48;6.50;99.90
20891;DHT22;10605;52.968;8.844;2023-11-22T11:56:15;6.40;99.90
20891;DHT22;10605;52.968;8.844;2023-11-22T11:58:50;6.40;99.90
20891;DHT22;10605;52.968;8.844;2023-11-22T12:01:17;6.20;99.90
20891;DHT22;10605;52.968;8.844;2023-11-22T12:03:43;6.10;99.90
20891;DHT22;10605;52.968;8.844;2023-11-22T12:06:09;6.20;99.90
20891;DHT22;10605;52.968;8.844;2023-11-22T12:08:35;6.30;99.90
20891;DHT22;10605;52.968;8.844;2023-11-22T12:11:04;6.20;99.90
20891;DHT22;10605;52.968;8.844;2023-11-22T12:13:32;6.20;99.90
20891;DHT22;10605;52.968;8.844;2023-11-22T12:15:58;6.10;99.90
20891;DHT22;10605;52.968;8.844;2023-11-22T12:18:24;6.10;99.90
20891;DHT22;10605;52.968;8.844;2023-11-22T12:20:59;6.30;99.90
20891;DHT22;10605;52.968;8.844;2023-11-22T12:23:27;6.00;99.90
20891;DHT22;10605;52.968;8.844;2023-11-22T12:25:59;6.10;99.90
20891;DHT22;10605;52.968;8.844;2023-11-22T12:28:27;6.30;99.90
20891;DHT22;10605;52.968;8.844;2023-11-22T12:30:53;6.40;99.90
20891;DHT22;10605;52.968;8.844;2023-11-22T12:33:19;6.20;99.90
20891;DHT22;10605;52.968;8.844;2023-11-22T12:35:46;6.20;99.90
20891;DHT22;10605;52.968;8.844;2023-11-22T12:38:12;6.30;99.90
20891;DHT22;10605;52.968;8.844;2023-11-22T12:40:43;6.50;99.90
20891;DHT22;10605;52.968;8.844;2023-11-22T12:43:13;6.50;99.90
20891;DHT22;10605;52.968;8.844;2023-11-22T12:45:39;6.60;99.90
20891;DHT22;10605;52.968;8.844;2023-11-22T12:48:25;6.50;99.90
20891;DHT22;10605;52.968;8.844;2023-11-22T12:50:52;6.50;99.90
20891;DHT22;10605;52.968;8.844;2023-11-22T12:53:18;6.50;99.90
20891;DHT22;10605;52.968;8.844;2023-11-22T12:55:51;6.50;99.90
20891;DHT22;10605;52.968;8.844;2023-11-22T12:58:24;6.60;99.90
20891;DHT22;10605;52.968;8.844;2023-11-22T13:00:52;6.60;99.90
20891;DHT22;10605;52.968;8.844;2023-11-22T13:03:23;6.70;99.90
20891;DHT22;10605;52.968;8.844;2023-11-22T13:05:49;6.60;99.90
20891;DHT22;10605;52.968;8.844;2023-11-22T13:08:17;6.70;99.90
20891;DHT22;10605;52.968;8.844;2023-11-22T13:10:44;6.60;99.90
20891;DHT22;10605;52.968;8.844;2023-11-22T13:13:10;6.60;99.90
20891;DHT22;10605;52.968;8.844;2023-11-22T13:15:36;6.60;99.90
20891;DHT22;10605;52.968;8.844;2023-11-22T13:18:01;6.40;99.90
20891;DHT22;10605;52.968;8.844;2023-11-22T13:20:27;6.30;99.90
20891;DHT22;10605;52.968;8.844;2023-11-22T13:22:56;6.30;99.90
20891;DHT22;10605;52.968;8.844;2023-11-22T13:25:23;6.30;99.90
20891;DHT22;10605;52.968;8.844;2023-11-22T13:27:50;6.10;99.90
20891;DHT22;10605;52.968;8.844;2023-11-22T13:30:19;6.10;99.90
20891;DHT22;10605;52.968;8.844;2023-11-22T13:32:50;6.00;99.90
20891;DHT22;10605;52.968;8.844;2023-11-22T13:35:16;6.00;99.90
20891;DHT22;10605;52.968;8.844;2023-11-22T13:37:43;5.70;99.90
20891;DHT22;10605;52.968;8.844;2023-11-22T13:40:13;5.80;99.90
20891;DHT22;10605;52.968;8.844;2023-11-22T13:42:43;5.70;99.90
20891;DHT22;10605;52.968;8.844;2023-11-22T13:45:10;5.60;99.90
20891;DHT22;10605;52.968;8.844;2023-11-22T13:47:36;5.60;99.90
20891;DHT22;10605;52.968;8.844;2023-11-22T13:50:02;5.40;99.90
20891;DHT22;10605;52.968;8.844;2023-11-22T13:52:29;5.40;99.90
20891;DHT22;10605;52.968;8.844;2023-11-22T13:54:54;5.40;99.90
20891;DHT22;10605;52.968;8.844;2023-11-22T13:57:22;5.40;99.90
20891;DHT22;10605;52.968;8.844;2023-11-22T13:59:48;5.30;99.90
20891;DHT22;10605;52.968;8.844;2023-11-22T14:02:13;5.30;99.90
20891;DHT22;10605;52.968;8.844;2023-11-22T14:04:39;5.20;99.90
20891;DHT22;10605;52.968;8.844;2023-11-22T14:07:05;5.20;99.90
20891;DHT22;10605;52.968;8.844;2023-11-22T14:09:32;5.10;99.90
20891;DHT22;10605;52.968;8.844;2023-11-22T14:12:02;5.00;99.90
20891;DHT22;10605;52.968;8.844;2023-11-22T14:14:27;4.90;99.90
20891;DHT22;10605;52.968;8.844;2023-11-22T14:16:53;4.90;99.90
20891;DHT22;10605;52.968;8.844;2023-11-22T14:19:19;4.80;99.90
20891;DHT22;10605;52.968;8.844;2023-11-22T14:21:44;4.80;99.90
20891;DHT22;10605;52.968;8.844;2023-11-22T14:24:11;4.70;99.90
20891;DHT22;10605;52.968;8.844;2023-11-22T14:26:37;4.70;99.90
20891;DHT22;10605;52.968;8.844;2023-11-22T14:29:03;4.60;99.90
20891;DHT22;10605;52.968;8.844;2023-11-22T14:31:31;4.40;99.90
20891;DHT22;10605;52.968;8.844;2023-11-22T14:33:56;4.50;99.90
20891;DHT22;10605;52.968;8.844;2023-11-22T14:36:25;4.40;99.90
20891;DHT22;10605;52.968;8.844;2023-11-22T14:38:52;4.30;99.90
20891;DHT22;10605;52.968;8.844;2023-11-22T14:41:22;4.30;99.90
20891;DHT22;10605;52.968;8.844;2023-11-22T14:43:48;4.30;99.90
20891;DHT22;10605;52.968;8.844;2023-11-22T14:46:13;4.40;99.90
20891;DHT22;10605;52.968;8.844;2023-11-22T14:48:39;4.30;99.90
20891;DHT22;10605;52.968;8.844;2023-11-22T14:51:05;4.20;99.90
20891;DHT22;10605;52.968;8.844;2023-11-22T14:53:30;4.20;99.90
20891;DHT22;10605;52.968;8.844;2023-11-22T14:55:56;4.30;99.90
20891;DHT22;10605;52.968;8.844;2023-11-22T14:58:22;4.20;99.90
20891;DHT22;10605;52.968;8.844;2023-11-22T15:00:48;4.20;99.90
20891;DHT22;10605;52.968;8.844;2023-11-22T15:03:14;4.20;99.90
20891;DHT22;10605;52.968;8.844;2023-11-22T15:05:40;4.10;99.90
20891;DHT22;10605;52.968;8.844;2023-11-22T15:08:06;4.10;99.90
20891;DHT22;10605;52.968;8.844;2023-11-22T15:10:33;4.10;99.90
20891;DHT22;10605;52.968;8.844;2023-11-22T15:12:59;4.10;99.90
20891;DHT22;10605;52.968;8.844;2023-11-22T15:15:25;4.10;99.90
20891;DHT22;10605;52.968;8.844;2023-11-22T15:17:51;4.20;99.90
20891;DHT22;10605;52.968;8.844;2023-11-22T15:20:16;4.10;99.90
20891;DHT22;10605;52.968;8.844;2023-11-22T15:22:42;4.00;99.90
20891;DHT22;10605;52.968;8.844;2023-11-22T15:25:08;4.00;99.90
20891;DHT22;10605;52.968;8.844;2023-11-22T15:27:35;3.90;99.90
20891;DHT22;10605;52.968;8.844;2023-11-22T15:30:01;3.90;99.90
20891;DHT22;10605;52.968;8.844;2023-11-22T15:32:28;3.90;99.90
20891;DHT22;10605;52.968;8.844;2023-11-22T15:34:54;3.90;99.90
20891;DHT22;10605;52.968;8.844;2023-11-22T15:37:20;3.90;99.90
20891;DHT22;10605;52.968;8.844;2023-11-22T15:39:45;3.80;99.90
20891;DHT22;10605;52.968;8.844;2023-11-22T15:42:11;3.80;99.90
20891;DHT22;10605;52.968;8.844;2023-11-22T15:44:37;3.80;99.90
20891;DHT22;10605;52.968;8.844;2023-11-22T15:47:03;3.90;99.90
20891;DHT22;10605;52.968;8.844;2023-11-22T15:49:35;3.80;99.90
20891;DHT22;10605;52.968;8.844;2023-11-22T15:52:00;3.80;99.90